createdAt,value
2016-07-22T00:00:15.853Z,954.91
2016-07-22T00:01:15.881Z,954.89
2016-07-22T00:02:15.913Z,954.89
2016-07-22T00:03:15.943Z,954.91
2016-07-22T00:04:16.005Z,954.93
2016-07-22T00:05:16.002Z,954.9
2016-07-22T00:06:16.035Z,954.92
2016-07-22T00:07:16.064Z,954.92
2016-07-22T00:08:16.174Z,954.92
2016-07-22T00:09:16.128Z,954.91
2016-07-22T00:10:16.154Z,954.9
2016-07-22T00:11:16.185Z,954.89
2016-07-22T00:12:16.214Z,954.87
2016-07-22T00:13:16.248Z,954.85
2016-07-22T00:14:16.276Z,954.86
2016-07-22T00:15:16.305Z,954.85
2016-07-22T00:16:16.336Z,954.86
2016-07-22T00:17:16.366Z,954.86
2016-07-22T00:18:16.397Z,954.88
2016-07-22T00:19:16.426Z,954.88
2016-07-22T00:20:16.457Z,954.89
2016-07-22T00:21:16.487Z,954.9
2016-07-22T00:22:16.517Z,954.88
2016-07-22T00:23:16.548Z,954.86
2016-07-22T00:24:16.578Z,954.81
2016-07-22T00:25:16.606Z,954.82
2016-07-22T00:26:16.637Z,954.82
2016-07-22T00:27:16.667Z,954.81
2016-07-22T00:28:16.697Z,954.8
2016-07-22T00:29:16.742Z,954.79
2016-07-22T00:30:16.758Z,954.77
2016-07-22T00:31:16.789Z,954.78
2016-07-22T00:32:16.818Z,954.8
2016-07-22T00:33:16.847Z,954.78
2016-07-22T00:34:16.877Z,954.78
2016-07-22T00:35:16.908Z,954.79
2016-07-22T00:36:16.939Z,954.78
2016-07-22T00:37:16.968Z,954.77
2016-07-22T00:38:17.011Z,954.81
2016-07-22T00:39:17.029Z,954.79
2016-07-22T00:40:17.490Z,954.84
2016-07-22T00:41:17.137Z,954.86
2016-07-22T00:42:17.119Z,954.85
2016-07-22T00:43:17.150Z,954.81
2016-07-22T00:44:17.178Z,954.83
2016-07-22T00:45:17.210Z,954.82
2016-07-22T00:46:17.243Z,954.79
2016-07-22T00:47:17.271Z,954.81
2016-07-22T00:48:17.300Z,954.8
2016-07-22T00:49:17.330Z,954.76
2016-07-22T00:50:17.384Z,954.68
2016-07-22T00:51:17.390Z,954.7
2016-07-22T00:52:17.423Z,954.69
2016-07-22T00:53:17.451Z,954.66
2016-07-22T00:54:17.562Z,954.68
2016-07-22T00:55:17.511Z,954.69
2016-07-22T00:56:17.544Z,954.66
2016-07-22T00:57:17.572Z,954.64
2016-07-22T00:58:17.601Z,954.65
2016-07-22T00:59:17.632Z,954.61
2016-07-22T01:00:17.661Z,954.57
2016-07-22T01:01:17.692Z,954.56
2016-07-22T01:02:17.721Z,954.57
2016-07-22T01:03:17.757Z,954.58
2016-07-22T01:04:17.780Z,954.53
2016-07-22T01:05:17.843Z,954.52
2016-07-22T01:06:17.841Z,954.48
2016-07-22T01:07:17.871Z,954.48
2016-07-22T01:08:17.902Z,954.44
2016-07-22T01:09:17.932Z,954.44
2016-07-22T01:10:17.961Z,954.42
2016-07-22T01:11:17.990Z,954.43
2016-07-22T01:12:18.021Z,954.43
2016-07-22T01:13:18.052Z,954.42
2016-07-22T01:14:18.081Z,954.4
2016-07-22T01:15:18.112Z,954.43
2016-07-22T01:16:18.141Z,954.42
2016-07-22T01:17:18.170Z,954.44
2016-07-22T01:18:18.252Z,954.44
2016-07-22T01:19:18.251Z,954.45
2016-07-22T01:20:18.297Z,954.41
2016-07-22T01:21:18.292Z,954.39
2016-07-22T01:22:18.331Z,954.37
2016-07-22T01:23:18.350Z,954.35
2016-07-22T01:24:18.527Z,954.34
2016-07-22T01:25:18.411Z,954.36
2016-07-22T01:26:18.440Z,954.38
2016-07-22T01:27:18.471Z,954.42
2016-07-22T01:28:18.500Z,954.44
2016-07-22T01:29:18.529Z,954.39
2016-07-22T01:30:18.559Z,954.39
2016-07-22T01:31:18.594Z,954.36
2016-07-22T01:32:18.618Z,954.37
2016-07-22T01:33:18.649Z,954.32
2016-07-22T01:34:18.687Z,954.3
2016-07-22T01:35:18.709Z,954.25
2016-07-22T01:36:18.739Z,954.24
2016-07-22T01:37:18.779Z,954.25
2016-07-22T01:38:18.798Z,954.22
2016-07-22T01:39:18.827Z,954.17
2016-07-22T01:40:18.859Z,954.17
2016-07-22T01:41:18.887Z,954.15
2016-07-22T01:42:18.917Z,954.14
2016-07-22T01:43:18.947Z,954.15
2016-07-22T01:44:18.995Z,954.13
2016-07-22T01:45:19.006Z,954.14
2016-07-22T01:46:19.036Z,954.15
2016-07-22T01:47:19.067Z,954.16
2016-07-22T01:48:19.096Z,954.14
2016-07-22T01:49:19.126Z,954.11
2016-07-22T01:50:19.154Z,954.14
2016-07-22T01:51:19.185Z,954.16
2016-07-22T01:52:19.215Z,954.14
2016-07-22T01:53:19.431Z,954.11
2016-07-22T01:54:19.280Z,954.12
2016-07-22T01:55:19.303Z,954.13
2016-07-22T01:56:19.335Z,954.13
2016-07-22T01:57:19.363Z,954.13
2016-07-22T01:58:19.392Z,954.12
2016-07-22T01:59:19.423Z,954.09
2016-07-22T02:00:19.453Z,954.09
2016-07-22T02:01:19.483Z,954.08
2016-07-22T02:02:19.511Z,954.06
2016-07-22T02:03:19.541Z,954.04
2016-07-22T02:04:19.571Z,953.99
2016-07-22T02:05:19.611Z,953.97
2016-07-22T02:06:19.631Z,953.96
2016-07-22T02:07:19.659Z,953.92
2016-07-22T02:08:19.803Z,953.89
2016-07-22T02:09:19.717Z,953.89
2016-07-22T02:10:19.748Z,953.86
2016-07-22T02:11:19.777Z,953.88
2016-07-22T02:12:19.806Z,953.84
2016-07-22T02:13:19.836Z,953.82
2016-07-22T02:14:19.866Z,953.87
2016-07-22T02:15:19.896Z,953.83
2016-07-22T02:16:19.925Z,953.84
2016-07-22T02:17:19.965Z,953.86
2016-07-22T02:18:19.983Z,953.87
2016-07-22T02:19:20.011Z,953.89
2016-07-22T02:20:20.041Z,953.92
2016-07-22T02:21:20.071Z,953.86
2016-07-22T02:22:20.101Z,953.89
2016-07-22T02:23:20.129Z,953.91
2016-07-22T02:24:20.159Z,953.94
2016-07-22T02:25:20.188Z,953.96
2016-07-22T02:26:20.218Z,953.95
2016-07-22T02:27:20.248Z,953.97
2016-07-22T02:28:20.277Z,953.97
2016-07-22T02:29:20.307Z,953.97
2016-07-22T02:30:20.335Z,953.99
2016-07-22T02:31:20.364Z,953.98
2016-07-22T02:32:20.395Z,953.92
2016-07-22T02:33:20.424Z,953.93
2016-07-22T02:34:20.452Z,953.92
2016-07-22T02:35:20.482Z,953.92
2016-07-22T02:36:20.510Z,953.94
2016-07-22T02:37:20.541Z,953.89
2016-07-22T02:38:20.569Z,953.94
2016-07-22T02:39:20.598Z,953.92
2016-07-22T02:40:20.629Z,953.93
2016-07-22T02:41:20.669Z,953.95
2016-07-22T02:42:20.687Z,953.96
2016-07-22T02:43:20.714Z,953.94
2016-07-22T02:44:20.746Z,953.96
2016-07-22T02:45:20.775Z,953.97
2016-07-22T02:46:20.804Z,953.99
2016-07-22T02:47:20.843Z,953.98
2016-07-22T02:48:20.862Z,953.99
2016-07-22T02:49:20.893Z,954.01
2016-07-22T02:50:20.922Z,953.97
2016-07-22T02:51:20.952Z,953.99
2016-07-22T02:52:20.980Z,954.01
2016-07-22T02:53:21.009Z,954.03
2016-07-22T02:54:21.039Z,954.08
2016-07-22T02:55:21.068Z,954.1
2016-07-22T02:56:21.097Z,954.09
2016-07-22T02:57:21.128Z,954.11
2016-07-22T02:58:21.156Z,954.07
2016-07-22T02:59:21.186Z,954.11
2016-07-22T03:00:21.214Z,954.11
2016-07-22T03:01:21.245Z,954.08
2016-07-22T03:02:21.367Z,954.14
2016-07-22T03:03:21.301Z,954.16
2016-07-22T03:04:21.331Z,954.13
2016-07-22T03:05:21.382Z,954.15
2016-07-22T03:06:21.390Z,954.15
2016-07-22T03:07:21.418Z,954.19
2016-07-22T03:08:21.449Z,954.19
2016-07-22T03:09:21.478Z,954.16
2016-07-22T03:10:21.507Z,954.17
2016-07-22T03:11:21.536Z,954.17
2016-07-22T03:12:21.566Z,954.21
2016-07-22T03:13:21.600Z,954.23
2016-07-22T03:14:21.629Z,954.25
2016-07-22T03:15:21.653Z,954.25
2016-07-22T03:16:21.684Z,954.28
2016-07-22T03:17:21.712Z,954.27
2016-07-22T03:18:21.739Z,954.27
2016-07-22T03:19:21.770Z,954.28
2016-07-22T03:20:21.798Z,954.28
2016-07-22T03:21:21.830Z,954.27
2016-07-22T03:22:21.859Z,954.24
2016-07-22T03:23:21.887Z,954.28
2016-07-22T03:24:21.917Z,954.27
2016-07-22T03:25:21.945Z,954.27
2016-07-22T03:26:21.975Z,954.3
2016-07-22T03:27:22.005Z,954.28
2016-07-22T03:28:22.033Z,954.3
2016-07-22T03:29:22.062Z,954.29
2016-07-22T03:30:22.092Z,954.32
2016-07-22T03:31:22.122Z,954.35
2016-07-22T03:32:22.148Z,954.28
2016-07-22T03:33:22.178Z,954.29
2016-07-22T03:34:22.209Z,954.26
2016-07-22T03:35:22.238Z,954.19
2016-07-22T03:36:22.266Z,954.22
2016-07-22T03:37:22.295Z,954.2
2016-07-22T03:38:22.346Z,954.23
2016-07-22T03:39:22.357Z,954.24
2016-07-22T03:40:22.381Z,954.3
2016-07-22T03:41:22.412Z,954.27
2016-07-22T03:42:22.440Z,954.29
2016-07-22T03:43:22.469Z,954.31
2016-07-22T03:44:22.498Z,954.31
2016-07-22T03:45:22.528Z,954.31
2016-07-22T03:46:22.559Z,954.37
2016-07-22T03:47:22.586Z,954.31
2016-07-22T03:48:22.615Z,954.34
2016-07-22T03:49:22.644Z,954.33
2016-07-22T03:50:22.673Z,954.34
2016-07-22T03:51:22.703Z,954.3
2016-07-22T03:52:22.731Z,954.26
2016-07-22T03:53:22.760Z,954.27
2016-07-22T03:54:22.789Z,954.25
2016-07-22T03:55:22.819Z,954.24
2016-07-22T03:56:22.936Z,954.21
2016-07-22T03:57:22.877Z,954.24
2016-07-22T03:58:22.906Z,954.21
2016-07-22T03:59:22.935Z,954.22
2016-07-22T04:00:22.964Z,954.25
2016-07-22T04:01:22.995Z,954.23
2016-07-22T04:02:23.022Z,954.23
2016-07-22T04:03:23.051Z,954.22
2016-07-22T04:04:23.080Z,954.19
2016-07-22T04:05:23.109Z,954.24
2016-07-22T04:06:23.430Z,954.23
2016-07-22T04:07:23.170Z,954.22
2016-07-22T04:08:23.198Z,954.2
2016-07-22T04:09:23.227Z,954.22
2016-07-22T04:10:23.272Z,954.19
2016-07-22T04:11:23.286Z,954.23
2016-07-22T04:12:23.314Z,954.2
2016-07-22T04:13:23.343Z,954.22
2016-07-22T04:14:23.374Z,954.26
2016-07-22T04:15:23.403Z,954.27
2016-07-22T04:16:23.429Z,954.27
2016-07-22T04:17:23.461Z,954.28
2016-07-22T04:18:23.490Z,954.3
2016-07-22T04:19:23.520Z,954.29
2016-07-22T04:20:23.548Z,954.32
2016-07-22T04:21:23.576Z,954.35
2016-07-22T04:22:23.608Z,954.36
2016-07-22T04:23:23.636Z,954.35
2016-07-22T04:24:23.672Z,954.38
2016-07-22T04:25:23.695Z,954.41
2016-07-22T04:26:23.725Z,954.45
2016-07-22T04:27:23.754Z,954.46
2016-07-22T04:28:23.783Z,954.45
2016-07-22T04:29:23.827Z,954.48
2016-07-22T04:30:23.841Z,954.47
2016-07-22T04:31:23.870Z,954.46
2016-07-22T04:32:23.899Z,954.47
2016-07-22T04:33:23.928Z,954.5
2016-07-22T04:34:23.958Z,954.45
2016-07-22T04:35:23.987Z,954.48
2016-07-22T04:36:24.016Z,954.46
2016-07-22T04:37:24.046Z,954.46
2016-07-22T04:38:24.074Z,954.51
2016-07-22T04:39:24.103Z,954.46
2016-07-22T04:40:24.134Z,954.47
2016-07-22T04:41:24.162Z,954.44
2016-07-22T04:42:24.192Z,954.44
2016-07-22T04:43:24.233Z,954.37
2016-07-22T04:44:24.250Z,954.38
2016-07-22T04:45:24.281Z,954.36
2016-07-22T04:46:24.309Z,954.39
2016-07-22T04:47:24.339Z,954.42
2016-07-22T04:48:24.369Z,954.43
2016-07-22T04:49:24.396Z,954.39
2016-07-22T04:50:24.426Z,954.44
2016-07-22T04:51:24.455Z,954.41
2016-07-22T04:52:24.486Z,954.4
2016-07-22T04:53:24.514Z,954.38
2016-07-22T04:54:24.544Z,954.35
2016-07-22T04:55:24.574Z,954.37
2016-07-22T04:56:24.603Z,954.35
2016-07-22T04:57:24.634Z,954.41
2016-07-22T04:58:24.663Z,954.43
2016-07-22T04:59:24.693Z,954.44
2016-07-22T05:00:24.721Z,954.41
2016-07-22T05:01:24.751Z,954.4
2016-07-22T05:02:24.781Z,954.43
2016-07-22T05:03:24.816Z,954.42
2016-07-22T05:04:24.839Z,954.39
2016-07-22T05:05:24.868Z,954.4
2016-07-22T05:06:24.898Z,954.38
2016-07-22T05:07:24.945Z,954.41
2016-07-22T05:08:24.956Z,954.42
2016-07-22T05:09:24.986Z,954.42
2016-07-22T05:10:25.017Z,954.41
2016-07-22T05:11:25.045Z,954.4
2016-07-22T05:12:25.076Z,954.36
2016-07-22T05:13:25.105Z,954.36
2016-07-22T05:14:25.135Z,954.35
2016-07-22T05:15:25.165Z,954.32
2016-07-22T05:16:25.229Z,954.34
2016-07-22T05:17:25.223Z,954.3
2016-07-22T05:18:25.250Z,954.32
2016-07-22T05:19:25.283Z,954.28
2016-07-22T05:20:25.313Z,954.3
2016-07-22T05:21:25.342Z,954.31
2016-07-22T05:22:25.372Z,954.36
2016-07-22T05:23:25.401Z,954.36
2016-07-22T05:24:25.431Z,954.37
2016-07-22T05:25:25.460Z,954.36
2016-07-22T05:26:25.491Z,954.33
2016-07-22T05:27:25.521Z,954.38
2016-07-22T05:28:25.549Z,954.34
2016-07-22T05:29:25.579Z,954.32
2016-07-22T05:30:25.608Z,954.35
2016-07-22T05:31:25.638Z,954.36
2016-07-22T05:32:25.690Z,954.34
2016-07-22T05:33:25.697Z,954.39
2016-07-22T05:34:25.727Z,954.35
2016-07-22T05:35:25.756Z,954.28
2016-07-22T05:36:25.787Z,954.31
2016-07-22T05:37:25.815Z,954.27
2016-07-22T05:38:25.845Z,954.22
2016-07-22T05:39:25.874Z,954.23
2016-07-22T05:40:25.908Z,954.22
2016-07-22T05:41:25.932Z,954.26
2016-07-22T05:42:25.964Z,954.26
2016-07-22T05:43:25.994Z,954.27
2016-07-22T05:44:26.023Z,954.26
2016-07-22T05:45:26.081Z,954.28
2016-07-22T05:46:26.083Z,954.29
2016-07-22T05:47:26.114Z,954.26
2016-07-22T05:48:26.141Z,954.3
2016-07-22T05:49:26.172Z,954.28
2016-07-22T05:50:26.206Z,954.34
2016-07-22T05:51:26.270Z,954.33
2016-07-22T05:52:26.389Z,954.35
2016-07-22T05:53:26.294Z,954.34
2016-07-22T05:54:26.321Z,954.36
2016-07-22T05:55:26.349Z,954.35
2016-07-22T05:56:26.400Z,954.35
2016-07-22T05:57:26.410Z,954.37
2016-07-22T05:58:26.439Z,954.36
2016-07-22T05:59:26.498Z,954.35
2016-07-22T06:00:26.595Z,954.31
2016-07-22T06:01:26.529Z,954.31
2016-07-22T06:02:26.558Z,954.3
2016-07-22T06:03:26.587Z,954.28
2016-07-22T06:04:26.619Z,954.27
2016-07-22T06:05:26.647Z,954.28
2016-07-22T06:06:26.676Z,954.27
2016-07-22T06:07:26.707Z,954.3
2016-07-22T06:08:26.736Z,954.29
2016-07-22T06:09:26.770Z,954.28
2016-07-22T06:10:26.795Z,954.29
2016-07-22T06:11:26.825Z,954.29
2016-07-22T06:12:26.856Z,954.3
2016-07-22T06:13:26.884Z,954.34
2016-07-22T06:14:26.914Z,954.37
2016-07-22T06:15:26.944Z,954.37
2016-07-22T06:16:26.973Z,954.36
2016-07-22T06:17:27.004Z,954.36
2016-07-22T06:18:27.033Z,954.36
2016-07-22T06:19:27.063Z,954.34
2016-07-22T06:20:27.093Z,954.35
2016-07-22T06:21:27.122Z,954.35
2016-07-22T06:22:27.151Z,954.32
2016-07-22T06:23:27.180Z,954.29
2016-07-22T06:24:27.209Z,954.32
2016-07-22T06:25:27.239Z,954.29
2016-07-22T06:26:27.275Z,954.25
2016-07-22T06:27:27.301Z,954.33
2016-07-22T06:28:27.335Z,954.31
2016-07-22T06:29:27.364Z,954.32
2016-07-22T06:30:27.389Z,954.3
2016-07-22T06:31:27.420Z,954.35
2016-07-22T06:32:27.449Z,954.33
2016-07-22T06:33:27.480Z,954.32
2016-07-22T06:34:27.510Z,954.3
2016-07-22T06:35:27.543Z,954.35
2016-07-22T06:36:27.570Z,954.38
2016-07-22T06:37:27.598Z,954.34
2016-07-22T06:38:27.628Z,954.34
2016-07-22T06:39:27.657Z,954.37
2016-07-22T06:40:27.687Z,954.35
2016-07-22T06:41:27.717Z,954.35
2016-07-22T06:42:27.747Z,954.35
2016-07-22T06:43:27.776Z,954.37
2016-07-22T06:44:27.807Z,954.38
2016-07-22T06:45:27.858Z,954.36
2016-07-22T06:46:27.869Z,954.41
2016-07-22T06:47:27.894Z,954.36
2016-07-22T06:48:27.926Z,954.34
2016-07-22T06:49:27.957Z,954.37
2016-07-22T06:50:27.985Z,954.38
2016-07-22T06:51:28.015Z,954.37
2016-07-22T06:52:28.046Z,954.42
2016-07-22T06:53:28.076Z,954.35
2016-07-22T06:54:28.105Z,954.36
2016-07-22T06:55:28.135Z,954.38
2016-07-22T06:56:28.165Z,954.37
2016-07-22T06:57:28.203Z,954.37
2016-07-22T06:58:28.223Z,954.38
2016-07-22T06:59:28.253Z,954.38
2016-07-22T07:00:28.284Z,954.37
2016-07-22T07:01:28.313Z,954.39
2016-07-22T07:02:28.365Z,954.42
2016-07-22T07:03:28.374Z,954.4
2016-07-22T07:04:28.403Z,954.42
2016-07-22T07:05:28.432Z,954.36
2016-07-22T07:06:28.463Z,954.37
2016-07-22T07:07:28.493Z,954.36
2016-07-22T07:08:28.522Z,954.34
2016-07-22T07:09:28.551Z,954.35
2016-07-22T07:10:28.604Z,954.36
2016-07-22T07:11:28.613Z,954.35
2016-07-22T07:12:28.642Z,954.35
2016-07-22T07:13:28.672Z,954.37
2016-07-22T07:14:28.701Z,954.37
2016-07-22T07:15:28.732Z,954.36
2016-07-22T07:16:28.762Z,954.35
2016-07-22T07:17:28.791Z,954.33
2016-07-22T07:18:28.823Z,954.37
2016-07-22T07:19:28.852Z,954.38
2016-07-22T07:20:28.883Z,954.38
2016-07-22T07:21:28.913Z,954.34
2016-07-22T07:22:28.943Z,954.36
2016-07-22T07:23:28.971Z,954.37
2016-07-22T07:24:29.004Z,954.37
2016-07-22T07:25:29.033Z,954.37
2016-07-22T07:26:29.060Z,954.37
2016-07-22T07:27:29.093Z,954.38
2016-07-22T07:28:29.123Z,954.36
2016-07-22T07:29:29.154Z,954.37
2016-07-22T07:30:29.188Z,954.38
2016-07-22T07:31:29.214Z,954.39
2016-07-22T07:32:29.245Z,954.39
2016-07-22T07:33:29.296Z,954.36
2016-07-22T07:34:29.314Z,954.39
2016-07-22T07:35:29.335Z,954.38
2016-07-22T07:36:29.366Z,954.32
2016-07-22T07:37:29.394Z,954.34
2016-07-22T07:38:29.426Z,954.32
2016-07-22T07:39:29.456Z,954.29
2016-07-22T07:40:29.488Z,954.29
2016-07-22T07:41:29.517Z,954.26
2016-07-22T07:42:29.547Z,954.27
2016-07-22T07:43:29.579Z,954.29
2016-07-22T07:44:29.608Z,954.27
2016-07-22T07:45:29.638Z,954.26
2016-07-22T07:46:29.671Z,954.31
2016-07-22T07:47:29.700Z,954.27
2016-07-22T07:48:29.730Z,954.27
2016-07-22T07:49:29.760Z,954.28
2016-07-22T07:50:29.792Z,954.27
2016-07-22T07:51:29.841Z,954.29
2016-07-22T07:52:29.852Z,954.27
2016-07-22T07:53:29.884Z,954.25
2016-07-22T07:54:29.914Z,954.28
2016-07-22T07:55:29.946Z,954.29
2016-07-22T07:56:29.975Z,954.27
2016-07-22T07:57:30.006Z,954.26
2016-07-22T07:58:30.037Z,954.28
2016-07-22T07:59:30.071Z,954.28
2016-07-22T08:00:30.099Z,954.36
2016-07-22T08:01:30.129Z,954.34
2016-07-22T08:02:30.161Z,954.33
2016-07-22T08:03:30.191Z,954.32
2016-07-22T08:04:30.223Z,954.39
2016-07-22T08:05:30.254Z,954.29
2016-07-22T08:06:30.286Z,954.29
2016-07-22T08:07:30.336Z,954.29
2016-07-22T08:08:30.348Z,954.29
2016-07-22T08:09:30.380Z,954.3
2016-07-22T08:10:30.410Z,954.3
2016-07-22T08:11:30.443Z,954.3
2016-07-22T08:12:30.476Z,954.3
2016-07-22T08:13:30.505Z,954.32
2016-07-22T08:14:30.536Z,954.34
2016-07-22T08:15:30.568Z,954.33
2016-07-22T08:16:30.615Z,954.29
2016-07-22T08:17:30.636Z,954.3
2016-07-22T08:18:30.661Z,954.25
2016-07-22T08:19:30.694Z,954.24
2016-07-22T08:20:30.724Z,954.24
2016-07-22T08:21:30.756Z,954.27
2016-07-22T08:22:30.788Z,954.32
2016-07-22T08:23:30.819Z,954.28
2016-07-22T08:24:30.863Z,954.26
2016-07-22T08:25:30.882Z,954.27
2016-07-22T08:26:30.917Z,954.24
2016-07-22T08:27:30.946Z,954.21
2016-07-22T08:28:30.977Z,954.19
2016-07-22T08:29:31.008Z,954.16
2016-07-22T08:30:31.040Z,954.16
2016-07-22T08:31:31.073Z,954.16
2016-07-22T08:32:31.103Z,954.14
2016-07-22T08:33:31.134Z,954.16
2016-07-22T08:34:31.166Z,954.13
2016-07-22T08:35:31.199Z,954.18
2016-07-22T08:36:31.231Z,954.14
2016-07-22T08:37:31.262Z,954.15
2016-07-22T08:38:31.295Z,954.1
2016-07-22T08:39:31.325Z,954.1
2016-07-22T08:40:31.360Z,954.1
2016-07-22T08:41:31.390Z,954.12
2016-07-22T08:42:31.422Z,954.16
2016-07-22T08:43:31.454Z,954.09
2016-07-22T08:44:31.486Z,954.06
2016-07-22T08:45:31.518Z,954.04
2016-07-22T08:46:31.550Z,954.06
2016-07-22T08:47:31.582Z,954.05
2016-07-22T08:48:31.614Z,954.04
2016-07-22T08:49:31.667Z,954.02
2016-07-22T08:50:31.676Z,954.01
2016-07-22T08:51:31.710Z,954
2016-07-22T08:52:31.744Z,953.98
2016-07-22T08:53:31.773Z,953.97
2016-07-22T08:54:31.807Z,953.97
2016-07-22T08:55:31.838Z,953.93
2016-07-22T08:56:31.871Z,953.89
2016-07-22T08:57:31.904Z,953.88
2016-07-22T08:58:31.934Z,953.89
2016-07-22T08:59:31.968Z,953.92
2016-07-22T09:00:32.000Z,953.9
2016-07-22T09:01:32.031Z,953.92
2016-07-22T09:02:32.064Z,953.93
2016-07-22T09:03:32.097Z,953.93
2016-07-22T09:04:32.129Z,953.87
2016-07-22T09:05:32.163Z,953.9
2016-07-22T09:06:32.194Z,953.92
2016-07-22T09:07:32.225Z,953.93
2016-07-22T09:08:32.260Z,953.91
2016-07-22T09:09:32.292Z,953.91
2016-07-22T09:10:32.324Z,953.85
2016-07-22T09:11:32.358Z,953.86
2016-07-22T09:12:32.388Z,953.82
2016-07-22T09:13:32.630Z,953.86
2016-07-22T09:14:32.471Z,953.81
2016-07-22T09:15:32.488Z,953.79
2016-07-22T09:16:32.518Z,953.82
2016-07-22T09:17:32.552Z,953.83
2016-07-22T09:18:32.601Z,953.78
2016-07-22T09:19:32.617Z,953.74
2016-07-22T09:20:32.650Z,953.75
2016-07-22T09:21:32.683Z,953.77
2016-07-22T09:22:32.720Z,953.77
2016-07-22T09:23:32.748Z,953.76
2016-07-22T09:24:32.780Z,953.76
2016-07-22T09:25:32.818Z,953.72
2016-07-22T09:26:32.846Z,953.72
2016-07-22T09:27:32.879Z,953.69
2016-07-22T09:28:32.912Z,953.69
2016-07-22T09:29:32.945Z,953.7
2016-07-22T09:30:32.979Z,953.74
2016-07-22T09:31:33.010Z,953.72
2016-07-22T09:32:33.043Z,953.69
2016-07-22T09:33:33.087Z,953.7
2016-07-22T09:34:33.108Z,953.7
2016-07-22T09:35:33.146Z,953.72
2016-07-22T09:36:33.176Z,953.69
2016-07-22T09:37:33.262Z,953.66
2016-07-22T09:38:33.240Z,953.66
2016-07-22T09:39:33.275Z,953.68
2016-07-22T09:40:33.307Z,953.71
2016-07-22T09:41:33.340Z,953.66
2016-07-22T09:42:33.546Z,953.69
2016-07-22T09:43:33.408Z,953.66
2016-07-22T09:44:33.440Z,953.68
2016-07-22T09:45:33.473Z,953.68
2016-07-22T09:46:33.505Z,953.67
2016-07-22T09:47:33.552Z,953.66
2016-07-22T09:48:33.601Z,953.64
2016-07-22T09:49:33.607Z,953.65
2016-07-22T09:50:33.684Z,953.65
2016-07-22T09:51:33.673Z,953.61
2016-07-22T09:52:33.756Z,953.64
2016-07-22T09:53:33.740Z,953.62
2016-07-22T09:54:33.773Z,953.59
2016-07-22T09:55:33.816Z,953.63
2016-07-22T09:56:33.861Z,953.59
2016-07-22T09:57:33.873Z,953.59
2016-07-22T09:58:33.907Z,953.58
2016-07-22T09:59:33.940Z,953.57
2016-07-22T10:00:33.973Z,953.63
2016-07-22T10:01:34.007Z,953.6
2016-07-22T10:02:34.041Z,953.58
2016-07-22T10:03:34.075Z,953.56
2016-07-22T10:04:34.111Z,953.54
2016-07-22T10:05:34.141Z,953.49
2016-07-22T10:06:34.174Z,953.45
2016-07-22T10:07:34.206Z,953.47
2016-07-22T10:08:34.242Z,953.42
2016-07-22T10:09:34.276Z,953.39
2016-07-22T10:10:34.310Z,953.39
2016-07-22T10:11:34.342Z,953.41
2016-07-22T10:12:34.375Z,953.35
2016-07-22T10:13:34.411Z,953.35
2016-07-22T10:14:34.445Z,953.34
2016-07-22T10:15:34.478Z,953.32
2016-07-22T10:16:34.511Z,953.31
2016-07-22T10:17:34.546Z,953.32
2016-07-22T10:18:34.579Z,953.35
2016-07-22T10:19:34.613Z,953.35
2016-07-22T10:20:34.647Z,953.36
2016-07-22T10:21:34.685Z,953.36
2016-07-22T10:22:34.713Z,953.37
2016-07-22T10:23:34.841Z,953.35
2016-07-22T10:24:34.787Z,953.38
2016-07-22T10:25:34.816Z,953.33
2016-07-22T10:26:34.850Z,953.33
2016-07-22T10:27:34.884Z,953.33
2016-07-22T10:28:34.917Z,953.31
2016-07-22T10:29:34.951Z,953.28
2016-07-22T10:30:34.985Z,953.23
2016-07-22T10:31:35.018Z,953.21
2016-07-22T10:32:35.316Z,953.23
2016-07-22T10:33:35.086Z,953.18
2016-07-22T10:34:35.119Z,953.14
2016-07-22T10:35:35.155Z,953.12
2016-07-22T10:36:35.188Z,953.15
2016-07-22T10:37:35.221Z,953.11
2016-07-22T10:38:35.256Z,953.15
2016-07-22T10:39:35.290Z,953.11
2016-07-22T10:40:35.322Z,953.11
2016-07-22T10:41:35.358Z,953.16
2016-07-22T10:42:35.391Z,953.16
2016-07-22T10:43:35.427Z,953.11
2016-07-22T10:44:35.460Z,953.15
2016-07-22T10:45:35.493Z,953.11
2016-07-22T10:46:35.529Z,953.07
2016-07-22T10:47:35.562Z,953.07
2016-07-22T10:48:35.595Z,953.13
2016-07-22T10:49:35.631Z,953.1
2016-07-22T10:50:35.664Z,953.06
2016-07-22T10:51:35.698Z,953.08
2016-07-22T10:52:35.733Z,953.02
2016-07-22T10:53:35.767Z,953.06
2016-07-22T10:54:35.801Z,953.01
2016-07-22T10:55:35.841Z,953
2016-07-22T10:56:35.870Z,952.95
2016-07-22T10:57:35.904Z,953
2016-07-22T10:58:35.938Z,952.92
2016-07-22T10:59:35.972Z,952.95
2016-07-22T11:00:36.007Z,952.9
2016-07-22T11:01:36.046Z,952.92
2016-07-22T11:02:36.075Z,952.93
2016-07-22T11:03:36.119Z,952.85
2016-07-22T11:04:36.155Z,952.87
2016-07-22T11:05:36.179Z,952.82
2016-07-22T11:06:36.213Z,952.86
2016-07-22T11:07:36.248Z,952.83
2016-07-22T11:08:36.283Z,952.85
2016-07-22T11:09:36.315Z,952.89
2016-07-22T11:10:36.354Z,952.9
2016-07-22T11:11:36.384Z,952.9
2016-07-22T11:12:36.428Z,952.86
2016-07-22T11:13:36.452Z,952.89
2016-07-22T11:14:36.488Z,952.85
2016-07-22T11:15:36.522Z,952.83
2016-07-22T11:16:36.558Z,952.92
2016-07-22T11:17:36.592Z,952.87
2016-07-22T11:18:36.628Z,952.88
2016-07-22T11:19:36.661Z,952.88
2016-07-22T11:20:36.712Z,952.86
2016-07-22T11:21:36.730Z,952.83
2016-07-22T11:22:36.764Z,952.86
2016-07-22T11:23:36.799Z,952.88
2016-07-22T11:24:36.834Z,952.87
2016-07-22T11:25:36.868Z,952.86
2016-07-22T11:26:36.903Z,952.86
2016-07-22T11:27:36.942Z,952.86
2016-07-22T11:28:36.972Z,952.84
2016-07-22T11:29:37.015Z,952.82
2016-07-22T11:30:37.041Z,952.84
2016-07-22T11:31:37.076Z,952.8
2016-07-22T11:32:37.110Z,952.79
2016-07-22T11:33:37.145Z,952.75
2016-07-22T11:34:37.178Z,952.71
2016-07-22T11:35:37.212Z,952.69
2016-07-22T11:36:37.247Z,952.67
2016-07-22T11:37:37.292Z,952.73
2016-07-22T11:38:37.317Z,952.68
2016-07-22T11:39:37.352Z,952.65
2016-07-22T11:40:37.385Z,952.65
2016-07-22T11:41:37.422Z,952.67
2016-07-22T11:42:37.455Z,952.65
2016-07-22T11:43:37.490Z,952.67
2016-07-22T11:44:37.525Z,952.71
2016-07-22T11:45:37.560Z,952.65
2016-07-22T11:46:37.601Z,952.61
2016-07-22T11:47:37.629Z,952.7
2016-07-22T11:48:37.670Z,952.61
2016-07-22T11:49:37.699Z,952.56
2016-07-22T11:50:37.734Z,952.61
2016-07-22T11:51:37.769Z,952.57
2016-07-22T11:52:37.803Z,952.57
2016-07-22T11:53:38.101Z,952.58
2016-07-22T11:54:37.879Z,952.6
2016-07-22T11:55:37.906Z,952.65
2016-07-22T11:56:37.943Z,952.66
2016-07-22T11:57:37.976Z,952.59
2016-07-22T11:58:38.011Z,952.54
2016-07-22T11:59:38.047Z,952.51
2016-07-22T12:00:38.080Z,952.49
2016-07-22T12:01:38.116Z,952.42
2016-07-22T12:02:38.150Z,952.5
2016-07-22T12:03:38.189Z,952.49
2016-07-22T12:04:38.220Z,952.46
2016-07-22T12:05:38.254Z,952.47
2016-07-22T12:06:38.290Z,952.5
2016-07-22T12:07:38.324Z,952.52
2016-07-22T12:08:38.358Z,952.54
2016-07-22T12:09:38.393Z,952.49
2016-07-22T12:10:38.427Z,952.48
2016-07-22T12:11:38.467Z,952.45
2016-07-22T12:12:38.497Z,952.45
2016-07-22T12:13:38.533Z,952.43
2016-07-22T12:14:38.567Z,952.44
2016-07-22T12:15:38.601Z,952.42
2016-07-22T12:16:38.637Z,952.44
2016-07-22T12:17:38.672Z,952.45
2016-07-22T12:18:38.706Z,952.49
2016-07-22T12:19:38.742Z,952.5
2016-07-22T12:20:38.775Z,952.49
2016-07-22T12:21:38.810Z,952.48
2016-07-22T12:22:38.845Z,952.46
2016-07-22T12:23:38.879Z,952.45
2016-07-22T12:24:38.914Z,952.36
2016-07-22T12:25:38.951Z,952.32
2016-07-22T12:26:38.984Z,952.31
2016-07-22T12:27:39.020Z,952.32
2016-07-22T12:28:39.055Z,952.32
2016-07-22T12:29:39.090Z,952.3
2016-07-22T12:30:39.127Z,952.26